Time,TemperatureF,DewpointF,PressureIn,WindDirection,WindDirectionDegrees,WindSpeedMPH,WindSpeedGustMPH,Humidity,HourlyPrecipIn,Conditions,Clouds,dailyrainin,SoftwareType,DateUTC
2013-01-29 00:00:00,34.0,34.0,29.78,SW,215,0.0,4.0,100,0.00,,,0.51,WUHU215WMR968SP,2013-01-29 05:00:00,
2013-01-29 00:01:00,34.0,34.0,29.75,NNW,331,0.0,4.0,100,0.00,,,0.00,WUHU215WMR968SP,2013-01-29 05:01:00,
2013-01-29 00:03:00,34.0,34.0,29.75,South,169,2.2,6.3,100,0.00,,,0.00,WUHU215WMR968SP,2013-01-29 05:03:00,
2013-01-29 00:08:00,34.0,34.0,29.75,SSW,210,2.2,6.3,100,0.00,,,0.00,WUHU215WMR968SP,2013-01-29 05:08:00,
2013-01-29 00:13:00,34.0,34.0,29.75,South,178,0.0,4.0,100,0.00,,,0.00,WUHU215WMR968SP,2013-01-29 05:13:00,
2013-01-29 00:18:00,33.8,33.8,29.78,SSW,193,0.0,3.6,100,0.00,,,0.00,WUHU215WMR968SP,2013-01-29 05:18:00,
2013-01-29 00:23:00,33.8,33.8,29.78,SSE,160,0.0,3.6,100,0.00,,,0.00,WUHU215WMR968SP,2013-01-29 05:23:00,
2013-01-29 00:28:00,33.6,33.6,29.78,NE,36,2.2,3.6,100,0.00,,,0.00,WUHU215WMR968SP,2013-01-29 05:28:00,
2013-01-29 00:33:00,33.6,33.6,29.75,SSE,163,0.0,3.6,100,0.00,,,0.00,WUHU215WMR968SP,2013-01-29 05:33:00,
2013-01-29 00:38:00,33.8,33.8,29.75,NE,46,0.0,3.6,100,0.00,,,0.00,WUHU215WMR968SP,2013-01-29 05:38:00,
2013-01-29 00:43:00,34.0,34.0,29.75,ENE,75,2.2,4.0,100,0.00,,,0.00,WUHU215WMR968SP,2013-01-29 05:43:00,
2013-01-29 00:48:00,34.0,34.0,29.72,ENE,62,0.0,4.0,100,0.00,,,0.00,WUHU215WMR968SP,2013-01-29 05:48:00,
2013-01-29 00:53:00,34.2,34.2,29.72,South,175,2.7,4.9,100,0.00,,,0.00,WUHU215WMR968SP,2013-01-29 05:53:00,
2013-01-29 00:58:00,34.3,34.3,29.72,SSE,157,0.0,4.9,100,0.00,,,0.00,WUHU215WMR968SP,2013-01-29 05:58:00,
2013-01-29 01:03:00,34.3,34.3,29.72,East,89,2.7,4.9,100,0.00,,,0.00,WUHU215WMR968SP,2013-01-29 06:03:00,
2013-01-29 01:08:00,34.3,34.3,29.72,SSE,160,2.2,6.7,100,0.00,,,0.00,WUHU215WMR968SP,2013-01-29 06:08:00,
2013-01-29 01:13:00,34.3,34.3,29.72,SSW,205,0.0,6.7,100,0.00,,,0.00,WUHU215WMR968SP,2013-01-29 06:13:00,
2013-01-29 01:18:00,34.3,34.3,29.72,SE,141,2.7,6.3,100,0.00,,,0.00,WUHU215WMR968SP,2013-01-29 06:18:00,
2013-01-29 01:23:00,34.3,34.3,29.72,ESE,108,2.7,6.3,100,0.00,,,0.00,WUHU215WMR968SP,2013-01-29 06:23:00,
2013-01-29 01:28:00,34.3,34.3,29.72,SSE,151,2.7,5.8,100,0.00,,,0.00,WUHU215WMR968SP,2013-01-29 06:28:00,
2013-01-29 01:33:00,34.5,34.5,29.72,South,175,2.7,4.0,100,0.00,,,0.00,WUHU215WMR968SP,2013-01-29 06:33:00,
2013-01-29 01:38:00,34.5,34.5,29.72,SSE,148,2.7,5.4,100,0.00,,,0.00,WUHU215WMR968SP,2013-01-29 06:38:00,
2013-01-29 01:43:00,34.5,34.5,29.72,South,169,2.2,5.4,100,0.00,,,0.00,WUHU215WMR968SP,2013-01-29 06:43:00,
2013-01-29 01:48:00,34.5,34.5,29.72,South,186,2.2,4.9,100,0.00,,,0.00,WUHU215WMR968SP,2013-01-29 06:48:00,
2013-01-29 01:53:00,34.5,34.5,29.72,SSE,151,2.2,4.9,100,0.00,,,0.00,WUHU215WMR968SP,2013-01-29 06:53:00,
2013-01-29 01:58:00,34.5,34.5,29.72,SSE,150,0.0,3.6,100,0.00,,,0.00,WUHU215WMR968SP,2013-01-29 06:58:00,
2013-01-29 02:03:00,34.5,34.5,29.69,SSE,149,0.0,4.0,100,0.00,,,0.00,WUHU215WMR968SP,2013-01-29 07:03:00,
2013-01-29 02:08:00,34.5,34.5,29.69,SSW,198,0.0,4.0,100,0.00,,,0.00,WUHU215WMR968SP,2013-01-29 07:08:00,
2013-01-29 02:13:00,34.5,34.5,29.69,SSE,162,0.0,4.0,100,0.00,,,0.00,WUHU215WMR968SP,2013-01-29 07:13:00,
2013-01-29 02:18:00,34.5,34.5,29.69,East,89,2.2,4.0,100,0.00,,,0.00,WUHU215WMR968SP,2013-01-29 07:18:00,
2013-01-29 02:23:00,34.5,34.5,29.69,South,173,0.0,3.6,100,0.00,,,0.00,WUHU215WMR968SP,2013-01-29 07:23:00,
2013-01-29 02:28:00,34.5,34.5,29.69,South,172,0.0,3.6,100,0.00,,,0.00,WUHU215WMR968SP,2013-01-29 07:28:00,
2013-01-29 02:33:00,34.7,34.7,29.69,ENE,65,0.0,4.9,100,0.00,,,0.00,WUHU215WMR968SP,2013-01-29 07:33:00,
2013-01-29 02:38:00,34.7,34.7,29.69,NW,319,2.7,4.9,100,0.00,,,0.00,WUHU215WMR968SP,2013-01-29 07:38:00,
2013-01-29 02:43:00,34.7,34.7,29.69,SSE,147,0.0,4.0,100,0.00,,,0.00,WUHU215WMR968SP,2013-01-29 07:43:00,
2013-01-29 02:48:00,34.9,34.9,29.66,North,2,0.0,4.0,100,0.00,,,0.00,WUHU215WMR968SP,2013-01-29 07:48:00,
2013-01-29 02:53:00,34.9,34.9,29.66,SSE,153,0.0,4.0,100,0.00,,,0.00,WUHU215WMR968SP,2013-01-29 07:53:00,
2013-01-29 02:58:00,34.9,34.9,29.66,NNE,21,2.2,4.0,100,0.00,,,0.00,WUHU215WMR968SP,2013-01-29 07:58:00,
2013-01-29 03:03:00,35.1,35.1,29.66,NNE,21,0.0,4.0,100,0.00,,,0.00,WUHU215WMR968SP,2013-01-29 08:03:00,
2013-01-29 03:08:00,35.1,35.1,29.66,SSW,208,2.2,3.6,100,0.00,,,0.00,WUHU215WMR968SP,2013-01-29 08:08:00,
2013-01-29 03:13:00,35.1,35.1,29.66,South,173,2.7,4.0,100,0.00,,,0.00,WUHU215WMR968SP,2013-01-29 08:13:00,
2013-01-29 03:18:00,35.2,35.2,29.69,SSE,160,0.0,4.0,100,0.04,,,0.04,WUHU215WMR968SP,2013-01-29 08:18:00,
2013-01-29 03:23:00,35.2,35.2,29.69,SSE,164,3.1,8.1,100,0.04,,,0.04,WUHU215WMR968SP,2013-01-29 08:23:00,
2013-01-29 03:28:00,35.4,35.4,29.69,SSW,209,0.0,8.1,100,0.08,,,0.08,WUHU215WMR968SP,2013-01-29 08:28:00,
2013-01-29 03:33:00,35.4,35.4,29.60,SSW,198,2.2,5.8,100,0.08,,,0.08,WUHU215WMR968SP,2013-01-29 08:33:00,
2013-01-29 03:38:00,35.6,35.6,29.60,South,177,0.0,6.3,100,0.08,,,0.08,WUHU215WMR968SP,2013-01-29 08:38:00,
2013-01-29 03:43:00,35.6,35.6,29.60,NNW,335,2.2,6.3,100,0.08,,,0.08,WUHU215WMR968SP,2013-01-29 08:43:00,
2013-01-29 03:48:00,35.6,35.6,29.63,West,265,0.0,3.6,100,0.08,,,0.08,WUHU215WMR968SP,2013-01-29 08:48:00,
2013-01-29 03:53:00,35.8,35.8,29.63,ENE,76,0.0,3.1,100,0.08,,,0.08,WUHU215WMR968SP,2013-01-29 08:53:00,
2013-01-29 03:58:00,35.8,35.8,29.63,NE,45,0.0,3.1,100,0.12,,,0.12,WUHU215WMR968SP,2013-01-29 08:58:00,
2013-01-29 04:03:00,35.8,35.8,29.63,SSE,152,0.0,3.1,100,0.12,,,0.12,WUHU215WMR968SP,2013-01-29 09:03:00,
2013-01-29 04:08:00,35.8,35.8,29.63,SE,127,0.0,3.1,100,0.16,,,0.16,WUHU215WMR968SP,2013-01-29 09:08:00,
2013-01-29 04:13:00,36.0,36.0,29.63,ENE,63,0.0,3.6,100,0.16,,,0.16,WUHU215WMR968SP,2013-01-29 09:13:00,
2013-01-29 04:18:00,36.0,36.0,29.60,SSE,162,3.1,4.9,100,0.16,,,0.20,WUHU215WMR968SP,2013-01-29 09:18:00,
2013-01-29 04:23:00,36.1,36.1,29.60,SSE,158,4.0,6.3,100,0.20,,,0.24,WUHU215WMR968SP,2013-01-29 09:23:00,
2013-01-29 04:28:00,36.3,36.3,29.60,SSW,198,3.1,6.3,100,0.16,,,0.24,WUHU215WMR968SP,2013-01-29 09:28:00,
2013-01-29 04:33:00,36.9,36.9,29.57,South,173,4.0,6.3,100,0.16,,,0.24,WUHU215WMR968SP,2013-01-29 09:33:00,
2013-01-29 04:38:00,37.0,37.0,29.57,South,174,2.7,6.3,100,0.16,,,0.24,WUHU215WMR968SP,2013-01-29 09:38:00,
2013-01-29 04:43:00,37.2,37.2,29.57,South,184,2.7,5.4,100,0.16,,,0.24,WUHU215WMR968SP,2013-01-29 09:43:00,
2013-01-29 04:48:00,37.4,37.4,29.57,SSE,166,3.1,5.4,100,0.16,,,0.24,WUHU215WMR968SP,2013-01-29 09:48:00,
2013-01-29 04:53:00,37.4,37.4,29.57,NNE,26,0.0,4.5,100,0.16,,,0.24,WUHU215WMR968SP,2013-01-29 09:53:00,
2013-01-29 04:58:00,37.6,37.6,29.57,South,177,0.0,3.6,100,0.12,,,0.24,WUHU215WMR968SP,2013-01-29 09:58:00,
2013-01-29 05:03:00,37.9,37.9,29.55,North,2,2.2,3.6,100,0.12,,,0.24,WUHU215WMR968SP,2013-01-29 10:03:00,
2013-01-29 05:08:00,38.1,38.1,29.55,NNW,330,2.7,4.9,100,0.08,,,0.24,WUHU215WMR968SP,2013-01-29 10:08:00,
2013-01-29 05:13:00,38.5,38.5,29.55,North,5,3.6,4.9,100,0.08,,,0.24,WUHU215WMR968SP,2013-01-29 10:13:00,
2013-01-29 05:18:00,38.7,38.7,29.55,NNE,24,2.7,5.4,100,0.08,,,0.28,WUHU215WMR968SP,2013-01-29 10:18:00,
2013-01-29 05:23:00,38.8,38.8,29.55,North,2,3.1,5.4,100,0.04,,,0.28,WUHU215WMR968SP,2013-01-29 10:23:00,
2013-01-29 05:28:00,39.0,39.0,29.55,NNW,337,4.9,6.3,100,0.04,,,0.28,WUHU215WMR968SP,2013-01-29 10:28:00,
2013-01-29 05:33:00,39.2,39.2,29.60,North,357,3.1,8.7,100,0.12,,,0.35,WUHU215WMR968SP,2013-01-29 10:33:00,
2013-01-29 05:38:00,38.8,38.8,29.60,North,9,3.6,8.7,100,0.16,,,0.39,WUHU215WMR968SP,2013-01-29 10:38:00,
2013-01-29 05:43:00,38.3,38.3,29.60,NNE,15,2.2,5.4,100,0.16,,,0.39,WUHU215WMR968SP,2013-01-29 10:43:00,
2013-01-29 05:48:00,38.1,38.1,29.55,SSE,161,2.7,6.7,100,0.16,,,0.39,WUHU215WMR968SP,2013-01-29 10:48:00,
2013-01-29 05:53:00,37.9,37.9,29.55,ESE,104,0.0,6.7,100,0.16,,,0.39,WUHU215WMR968SP,2013-01-29 10:53:00,
2013-01-29 05:58:00,38.1,38.1,29.55,SE,130,0.0,4.5,100,0.16,,,0.39,WUHU215WMR968SP,2013-01-29 10:58:00,
2013-01-29 06:03:00,37.9,37.9,29.55,SE,126,0.0,4.0,100,0.16,,,0.39,WUHU215WMR968SP,2013-01-29 11:03:00,
2013-01-29 06:08:00,37.9,37.9,29.55,SSW,210,0.0,3.1,100,0.24,,,0.47,WUHU215WMR968SP,2013-01-29 11:08:00,
2013-01-29 06:13:00,38.1,38.1,29.55,South,177,2.7,4.0,100,0.24,,,0.47,WUHU215WMR968SP,2013-01-29 11:13:00,
2013-01-29 06:18:00,38.8,38.8,29.55,South,185,2.2,4.0,100,0.20,,,0.47,WUHU215WMR968SP,2013-01-29 11:18:00,
2013-01-29 06:23:00,39.6,39.6,29.55,South,181,2.2,4.9,100,0.20,,,0.47,WUHU215WMR968SP,2013-01-29 11:23:00,
2013-01-29 06:28:00,39.6,39.6,29.55,SSE,165,2.2,4.9,100,0.20,,,0.47,WUHU215WMR968SP,2013-01-29 11:28:00,
2013-01-29 06:33:00,39.6,39.6,29.55,South,173,2.2,4.9,100,0.12,,,0.47,WUHU215WMR968SP,2013-01-29 11:33:00,
2013-01-29 06:38:00,39.7,39.7,29.55,SSE,165,0.0,4.9,100,0.12,,,0.51,WUHU215WMR968SP,2013-01-29 11:38:00,
2013-01-29 06:43:00,39.7,39.7,29.55,North,7,0.0,4.9,100,0.12,,,0.51,WUHU215WMR968SP,2013-01-29 11:43:00,
2013-01-29 06:48:00,39.7,39.7,29.55,South,173,3.1,4.0,100,0.12,,,0.51,WUHU215WMR968SP,2013-01-29 11:48:00,
2013-01-29 06:53:00,39.7,39.7,29.55,SSE,164,0.0,4.0,100,0.12,,,0.51,WUHU215WMR968SP,2013-01-29 11:53:00,
2013-01-29 06:58:00,39.7,39.7,29.55,ESE,103,2.7,4.0,100,0.12,,,0.51,WUHU215WMR968SP,2013-01-29 11:58:00,
2013-01-29 07:03:00,39.6,39.6,29.55,SE,128,0.0,4.0,100,0.12,,,0.51,WUHU215WMR968SP,2013-01-29 12:03:00,
2013-01-29 07:09:00,39.7,39.7,29.55,SSW,211,3.1,4.9,100,0.04,,,0.51,WUHU215WMR968SP,2013-01-29 12:09:00,
2013-01-29 07:14:00,39.7,39.7,29.55,SSE,159,3.1,4.9,100,0.08,,,0.55,WUHU215WMR968SP,2013-01-29 12:14:00,
2013-01-29 07:19:00,39.6,39.6,29.52,SSE,168,2.7,4.0,100,0.08,,,0.55,WUHU215WMR968SP,2013-01-29 12:19:00,
2013-01-29 07:24:00,39.6,39.6,29.52,SSE,154,3.1,4.0,100,0.08,,,0.55,WUHU215WMR968SP,2013-01-29 12:24:00,
2013-01-29 07:29:00,39.6,39.6,29.52,SSE,152,2.7,4.0,100,0.08,,,0.55,WUHU215WMR968SP,2013-01-29 12:29:00,
2013-01-29 07:34:00,39.7,39.7,29.52,SSE,157,2.2,4.0,100,0.08,,,0.55,WUHU215WMR968SP,2013-01-29 12:34:00,
2013-01-29 07:39:00,39.7,39.7,29.52,South,169,2.2,4.0,100,0.04,,,0.55,WUHU215WMR968SP,2013-01-29 12:39:00,
2013-01-29 07:44:00,39.7,39.7,29.52,South,170,0.0,4.0,100,0.04,,,0.55,WUHU215WMR968SP,2013-01-29 12:44:00,
2013-01-29 07:49:00,39.9,39.9,29.52,South,174,2.2,4.0,100,0.04,,,0.55,WUHU215WMR968SP,2013-01-29 12:49:00,
2013-01-29 07:54:00,39.7,39.7,29.52,East,92,0.0,4.0,100,0.04,,,0.55,WUHU215WMR968SP,2013-01-29 12:54:00,
2013-01-29 07:59:00,39.7,39.7,29.52,East,92,0.0,2.7,100,0.04,,,0.55,WUHU215WMR968SP,2013-01-29 12:59:00,
2013-01-29 08:04:00,39.6,39.6,29.52,East,92,0.0,0.0,100,0.04,,,0.55,WUHU215WMR968SP,2013-01-29 13:04:00,
2013-01-29 08:09:00,39.7,39.7,29.52,SSE,162,0.0,2.7,100,0.00,,,0.55,WUHU215WMR968SP,2013-01-29 13:09:00,
2013-01-29 08:14:00,40.1,40.1,29.52,ESE,109,0.0,2.7,100,0.00,,,0.55,WUHU215WMR968SP,2013-01-29 13:14:00,
2013-01-29 08:19:00,40.1,40.1,29.52,ESE,109,0.0,2.7,100,0.00,,,0.55,WUHU215WMR968SP,2013-01-29 13:19:00,
2013-01-29 08:24:00,39.9,39.9,29.52,ESE,109,0.0,0.0,100,0.00,,,0.55,WUHU215WMR968SP,2013-01-29 13:24:00,
2013-01-29 08:29:00,39.9,39.9,29.52,South,169,0.0,2.2,100,0.00,,,0.55,WUHU215WMR968SP,2013-01-29 13:29:00,
2013-01-29 08:34:00,40.5,40.5,29.52,SE,129,0.0,3.6,100,0.00,,,0.55,WUHU215WMR968SP,2013-01-29 13:34:00,
2013-01-29 08:39:00,41.0,41.0,29.52,SSE,164,2.2,3.6,100,0.00,,,0.55,WUHU215WMR968SP,2013-01-29 13:39:00,
2013-01-29 08:44:00,41.2,41.2,29.52,SSE,162,0.0,3.1,100,0.00,,,0.55,WUHU215WMR968SP,2013-01-29 13:44:00,
2013-01-29 08:49:00,40.6,40.6,29.52,SSE,162,0.0,2.7,100,0.00,,,0.55,WUHU215WMR968SP,2013-01-29 13:49:00,
2013-01-29 08:54:00,41.0,41.0,29.52,South,169,2.2,3.1,100,0.00,,,0.55,WUHU215WMR968SP,2013-01-29 13:54:00,
2013-01-29 08:59:00,41.0,41.0,29.52,SSE,168,2.7,3.6,100,0.00,,,0.55,WUHU215WMR968SP,2013-01-29 13:59:00,
2013-01-29 09:04:00,42.1,42.1,29.52,SSE,160,2.7,4.9,100,0.00,,,0.55,WUHU215WMR968SP,2013-01-29 14:04:00,
2013-01-29 09:09:00,42.8,42.8,29.52,SSE,166,2.7,4.9,100,0.00,,,0.55,WUHU215WMR968SP,2013-01-29 14:09:00,
2013-01-29 09:14:00,44.2,44.2,29.52,South,183,2.2,4.9,100,0.00,,,0.55,WUHU215WMR968SP,2013-01-29 14:14:00,
2013-01-29 09:19:00,46.2,46.2,29.52,SSE,148,3.1,5.4,100,0.00,,,0.55,WUHU215WMR968SP,2013-01-29 14:19:00,
2013-01-29 09:24:00,47.7,47.7,29.52,SSW,202,0.0,5.4,100,0.00,,,0.55,WUHU215WMR968SP,2013-01-29 14:24:00,
2013-01-29 09:29:00,48.6,48.6,29.52,SSW,203,2.7,5.4,100,0.00,,,0.55,WUHU215WMR968SP,2013-01-29 14:29:00,
2013-01-29 09:34:00,49.1,49.1,29.52,South,190,0.0,5.4,100,0.00,,,0.55,WUHU215WMR968SP,2013-01-29 14:34:00,
2013-01-29 09:39:00,49.6,49.6,29.52,SSW,203,2.7,4.9,100,0.00,,,0.55,WUHU215WMR968SP,2013-01-29 14:39:00,
2013-01-29 09:44:00,50.4,50.4,29.52,SSW,204,3.6,8.3,100,0.00,,,0.55,WUHU215WMR968SP,2013-01-29 14:44:00,
2013-01-29 09:49:00,50.7,50.7,29.52,South,172,4.5,8.3,100,0.00,,,0.55,WUHU215WMR968SP,2013-01-29 14:49:00,
2013-01-29 09:54:00,50.9,50.9,29.52,South,191,3.6,8.1,100,0.04,,,0.59,WUHU215WMR968SP,2013-01-29 14:54:00,
2013-01-29 09:59:00,50.9,50.9,29.52,South,173,5.4,8.7,100,0.04,,,0.59,WUHU215WMR968SP,2013-01-29 14:59:00,
2013-01-29 10:04:00,51.1,51.1,29.52,SW,227,4.5,8.7,100,0.04,,,0.59,WUHU215WMR968SP,2013-01-29 15:04:00,
2013-01-29 10:09:00,50.9,50.9,29.52,SSW,194,3.6,7.6,100,0.04,,,0.59,WUHU215WMR968SP,2013-01-29 15:09:00,
2013-01-29 10:14:00,50.9,50.9,29.52,SSW,198,2.2,6.3,100,0.04,,,0.59,WUHU215WMR968SP,2013-01-29 15:14:00,
2013-01-29 10:19:00,51.4,51.4,29.52,South,181,4.0,8.7,100,0.04,,,0.59,WUHU215WMR968SP,2013-01-29 15:19:00,
2013-01-29 10:24:00,51.6,51.6,29.52,South,181,5.8,8.7,100,0.04,,,0.59,WUHU215WMR968SP,2013-01-29 15:24:00,
2013-01-29 10:29:00,52.0,52.0,29.52,South,182,5.4,8.3,100,0.04,,,0.59,WUHU215WMR968SP,2013-01-29 15:29:00,
2013-01-29 10:34:00,52.2,52.2,29.52,SSW,209,5.8,8.3,100,0.04,,,0.59,WUHU215WMR968SP,2013-01-29 15:34:00,
2013-01-29 10:39:00,52.3,52.3,29.52,SSW,211,4.9,8.3,100,0.04,,,0.59,WUHU215WMR968SP,2013-01-29 15:39:00,
2013-01-29 10:44:00,52.5,52.5,29.52,SSW,195,6.3,8.7,100,0.04,,,0.59,WUHU215WMR968SP,2013-01-29 15:44:00,
2013-01-29 10:49:00,52.7,52.7,29.52,SSW,192,5.8,8.7,100,0.04,,,0.59,WUHU215WMR968SP,2013-01-29 15:49:00,
2013-01-29 10:54:00,52.7,52.7,29.52,SW,225,4.9,9.2,100,0.00,,,0.59,WUHU215WMR968SP,2013-01-29 15:54:00,
2013-01-29 10:59:00,52.5,52.5,29.52,SW,232,5.4,9.2,100,0.04,,,0.63,WUHU215WMR968SP,2013-01-29 15:59:00,
2013-01-29 11:04:00,52.7,52.7,29.52,SSW,205,4.9,8.3,100,0.04,,,0.63,WUHU215WMR968SP,2013-01-29 16:04:00,
2013-01-29 11:09:00,52.9,52.9,29.52,South,182,5.4,10.1,100,0.04,,,0.63,WUHU215WMR968SP,2013-01-29 16:09:00,
2013-01-29 11:14:00,53.1,53.1,29.52,SW,230,7.6,16.8,100,0.04,,,0.63,WUHU215WMR968SP,2013-01-29 16:14:00,
2013-01-29 11:19:00,53.1,53.1,29.52,WSW,240,4.9,16.8,100,0.04,,,0.63,WUHU215WMR968SP,2013-01-29 16:19:00,
2013-01-29 11:24:00,53.2,53.2,29.52,South,187,6.7,12.8,100,0.04,,,0.63,WUHU215WMR968SP,2013-01-29 16:24:00,
2013-01-29 11:29:00,53.2,53.2,29.52,South,183,4.5,10.1,100,0.04,,,0.63,WUHU215WMR968SP,2013-01-29 16:29:00,
2013-01-29 11:34:00,53.2,53.2,29.52,SSW,194,4.0,8.7,100,0.04,,,0.63,WUHU215WMR968SP,2013-01-29 16:34:00,
2013-01-29 11:39:00,53.4,53.4,29.52,SW,219,4.0,8.7,100,0.04,,,0.63,WUHU215WMR968SP,2013-01-29 16:39:00,
2013-01-29 11:44:00,53.2,53.2,29.52,SSW,197,3.6,8.7,100,0.04,,,0.63,WUHU215WMR968SP,2013-01-29 16:44:00,
2013-01-29 11:49:00,53.4,53.4,29.52,SSW,196,4.9,8.1,100,0.04,,,0.63,WUHU215WMR968SP,2013-01-29 16:49:00,
2013-01-29 11:54:00,53.2,53.2,29.52,South,186,4.9,8.1,100,0.04,,,0.63,WUHU215WMR968SP,2013-01-29 16:54:00,
2013-01-29 11:59:00,53.1,53.1,29.52,SSW,208,4.0,7.6,100,0.00,,,0.63,WUHU215WMR968SP,2013-01-29 16:59:00,
2013-01-29 12:04:00,53.2,53.2,29.52,South,173,4.5,9.2,100,0.00,,,0.63,WUHU215WMR968SP,2013-01-29 17:04:00,
2013-01-29 12:09:00,53.2,53.2,29.52,SW,222,4.0,9.2,100,0.00,,,0.63,WUHU215WMR968SP,2013-01-29 17:09:00,
2013-01-29 12:14:00,53.2,53.2,29.52,South,182,4.0,8.1,100,0.00,,,0.63,WUHU215WMR968SP,2013-01-29 17:14:00,
2013-01-29 12:19:00,53.4,53.4,29.52,SSE,156,3.6,8.7,100,0.00,,,0.63,WUHU215WMR968SP,2013-01-29 17:19:00,
2013-01-29 12:24:00,53.6,53.6,29.52,SSW,194,5.4,8.7,100,0.00,,,0.63,WUHU215WMR968SP,2013-01-29 17:24:00,
2013-01-29 12:29:00,53.8,53.8,29.52,South,176,7.6,10.1,100,0.00,,,0.63,WUHU215WMR968SP,2013-01-29 17:29:00,
2013-01-29 12:34:00,54.0,54.0,29.49,SSW,209,5.4,10.5,100,0.00,,,0.63,WUHU215WMR968SP,2013-01-29 17:34:00,
2013-01-29 12:39:00,54.0,54.0,29.49,SSW,205,3.6,10.5,100,0.00,,,0.63,WUHU215WMR968SP,2013-01-29 17:39:00,
2013-01-29 12:44:00,53.8,53.8,29.49,SSW,205,4.5,8.7,100,0.00,,,0.63,WUHU215WMR968SP,2013-01-29 17:44:00,
2013-01-29 12:49:00,53.8,53.8,29.49,SSW,207,4.5,8.7,100,0.00,,,0.63,WUHU215WMR968SP,2013-01-29 17:49:00,
2013-01-29 12:54:00,53.8,53.8,29.49,South,187,4.5,8.3,100,0.00,,,0.63,WUHU215WMR968SP,2013-01-29 17:54:00,
2013-01-29 12:59:00,53.8,53.8,29.49,South,187,6.3,9.6,100,0.00,,,0.63,WUHU215WMR968SP,2013-01-29 17:59:00,
2013-01-29 13:05:00,54.0,54.0,29.49,South,176,5.8,9.6,100,0.00,,,0.63,WUHU215WMR968SP,2013-01-29 18:05:00,
2013-01-29 13:10:00,54.1,54.1,29.49,South,185,4.9,8.3,100,0.00,,,0.63,WUHU215WMR968SP,2013-01-29 18:10:00,
2013-01-29 13:15:00,54.3,54.3,29.49,South,173,5.4,8.3,100,0.00,,,0.63,WUHU215WMR968SP,2013-01-29 18:15:00,
2013-01-29 13:20:00,54.5,54.5,29.46,South,179,3.1,8.7,100,0.00,,,0.63,WUHU215WMR968SP,2013-01-29 18:20:00,
2013-01-29 13:25:00,54.7,54.7,29.46,SW,214,7.2,8.7,100,0.00,,,0.63,WUHU215WMR968SP,2013-01-29 18:25:00,
2013-01-29 13:30:00,54.9,54.9,29.46,South,171,5.4,8.7,100,0.00,,,0.63,WUHU215WMR968SP,2013-01-29 18:30:00,
2013-01-29 13:35:00,54.9,54.9,29.46,South,179,5.8,8.7,100,0.00,,,0.63,WUHU215WMR968SP,2013-01-29 18:35:00,
2013-01-29 13:40:00,54.9,54.9,29.46,SW,220,4.0,9.6,100,0.00,,,0.63,WUHU215WMR968SP,2013-01-29 18:40:00,
2013-01-29 13:45:00,54.9,54.9,29.46,SSW,203,4.9,9.6,100,0.00,,,0.63,WUHU215WMR968SP,2013-01-29 18:45:00,
2013-01-29 13:50:00,54.9,54.9,29.46,SW,218,4.5,8.3,100,0.00,,,0.63,WUHU215WMR968SP,2013-01-29 18:50:00,
2013-01-29 13:55:00,54.9,54.9,29.46,South,177,5.8,8.3,100,0.00,,,0.63,WUHU215WMR968SP,2013-01-29 18:55:00,
2013-01-29 14:00:00,54.7,54.7,29.46,SW,233,4.9,7.6,100,0.00,,,0.63,WUHU215WMR968SP,2013-01-29 19:00:00,
2013-01-29 14:05:00,54.7,54.7,29.46,WSW,253,2.7,7.6,100,0.00,,,0.63,WUHU215WMR968SP,2013-01-29 19:05:00,
2013-01-29 14:10:00,54.5,54.5,29.46,South,189,4.0,7.6,100,0.00,,,0.63,WUHU215WMR968SP,2013-01-29 19:10:00,
2013-01-29 14:15:00,54.7,54.7,29.46,SW,233,4.5,8.3,100,0.00,,,0.63,WUHU215WMR968SP,2013-01-29 19:15:00,
2013-01-29 14:20:00,54.9,54.9,29.46,South,178,3.6,8.3,100,0.00,,,0.63,WUHU215WMR968SP,2013-01-29 19:20:00,
2013-01-29 14:25:00,54.7,54.7,29.46,NW,314,3.1,8.3,100,0.00,,,0.63,WUHU215WMR968SP,2013-01-29 19:25:00,
2013-01-29 14:30:00,54.7,54.7,29.46,SW,219,3.6,8.1,100,0.00,,,0.63,WUHU215WMR968SP,2013-01-29 19:30:00,
2013-01-29 14:35:00,54.7,54.7,29.46,SSW,199,3.6,8.1,100,0.00,,,0.63,WUHU215WMR968SP,2013-01-29 19:35:00,
2013-01-29 14:40:00,54.7,54.7,29.46,SSW,206,4.5,6.3,100,0.00,,,0.63,WUHU215WMR968SP,2013-01-29 19:40:00,
2013-01-29 14:45:00,54.9,54.9,29.46,South,191,5.4,8.3,100,0.00,,,0.63,WUHU215WMR968SP,2013-01-29 19:45:00,
2013-01-29 14:50:00,54.9,54.9,29.46,South,183,4.0,8.3,100,0.00,,,0.63,WUHU215WMR968SP,2013-01-29 19:50:00,
2013-01-29 14:55:00,54.9,54.9,29.46,South,179,5.4,8.1,100,0.00,,,0.63,WUHU215WMR968SP,2013-01-29 19:55:00,
2013-01-29 15:00:00,54.9,54.9,29.43,SSW,207,4.0,8.7,100,0.00,,,0.63,WUHU215WMR968SP,2013-01-29 20:00:00,
2013-01-29 15:05:00,55.0,55.0,29.43,South,176,5.8,8.7,100,0.00,,,0.63,WUHU215WMR968SP,2013-01-29 20:05:00,
2013-01-29 15:11:00,54.9,54.9,29.43,South,189,3.1,8.1,100,0.00,,,0.63,WUHU215WMR968SP,2013-01-29 20:11:00,
2013-01-29 15:16:00,54.9,54.9,29.43,SSE,168,3.6,8.1,100,0.00,,,0.63,WUHU215WMR968SP,2013-01-29 20:16:00,
2013-01-29 15:21:00,54.9,54.9,29.43,South,182,0.0,8.1,100,0.00,,,0.63,WUHU215WMR968SP,2013-01-29 20:21:00,
2013-01-29 15:26:00,55.0,55.0,29.43,South,177,2.2,6.7,100,0.00,,,0.63,WUHU215WMR968SP,2013-01-29 20:26:00,
2013-01-29 15:31:00,55.0,55.0,29.43,SSE,158,3.6,6.7,100,0.00,,,0.63,WUHU215WMR968SP,2013-01-29 20:31:00,
2013-01-29 15:36:00,55.0,55.0,29.43,SSE,162,0.0,5.8,100,0.00,,,0.63,WUHU215WMR968SP,2013-01-29 20:36:00,
2013-01-29 15:41:00,55.0,55.0,29.43,SSE,154,4.0,5.4,100,0.00,,,0.63,WUHU215WMR968SP,2013-01-29 20:41:00,
2013-01-29 15:46:00,54.9,54.9,29.43,SSE,160,3.6,5.4,100,0.00,,,0.63,WUHU215WMR968SP,2013-01-29 20:46:00,
2013-01-29 15:51:00,54.9,54.9,29.43,South,183,2.2,5.4,100,0.00,,,0.63,WUHU215WMR968SP,2013-01-29 20:51:00,
2013-01-29 15:56:00,54.5,54.5,29.43,SE,143,2.7,5.8,100,0.00,,,0.63,WUHU215WMR968SP,2013-01-29 20:56:00,
2013-01-29 16:01:00,54.5,54.5,29.43,South,183,4.9,8.3,100,0.00,,,0.63,WUHU215WMR968SP,2013-01-29 21:01:00,
2013-01-29 16:06:00,54.5,54.5,29.43,South,172,5.4,8.3,100,0.00,,,0.63,WUHU215WMR968SP,2013-01-29 21:06:00,
2013-01-29 16:11:00,54.5,54.5,29.43,SSE,156,3.6,8.3,100,0.00,,,0.63,WUHU215WMR968SP,2013-01-29 21:11:00,
2013-01-29 16:16:00,54.5,54.5,29.43,SE,141,3.1,8.3,100,0.00,,,0.63,WUHU215WMR968SP,2013-01-29 21:16:00,
2013-01-29 16:21:00,54.5,54.5,29.43,SE,145,6.3,8.3,100,0.00,,,0.63,WUHU215WMR968SP,2013-01-29 21:21:00,
2013-01-29 16:26:00,54.5,54.5,29.43,SE,140,3.6,8.3,100,0.00,,,0.63,WUHU215WMR968SP,2013-01-29 21:26:00,
2013-01-29 16:31:00,54.7,54.7,29.43,SSE,166,4.5,8.1,100,0.00,,,0.63,WUHU215WMR968SP,2013-01-29 21:31:00,
2013-01-29 16:37:00,54.7,54.7,29.43,South,169,2.2,8.3,100,0.00,,,0.63,WUHU215WMR968SP,2013-01-29 21:37:00,
2013-01-29 16:42:00,54.9,54.9,29.43,SE,141,4.5,8.3,100,0.00,,,0.63,WUHU215WMR968SP,2013-01-29 21:42:00,
2013-01-29 16:47:00,54.9,54.9,29.43,SSE,167,4.9,8.1,100,0.00,,,0.63,WUHU215WMR968SP,2013-01-29 21:47:00,
2013-01-29 16:52:00,54.9,54.9,29.43,South,187,4.9,8.1,100,0.00,,,0.63,WUHU215WMR968SP,2013-01-29 21:52:00,
2013-01-29 16:57:00,54.7,54.7,29.43,SW,223,4.0,10.1,100,0.00,,,0.63,WUHU215WMR968SP,2013-01-29 21:57:00,
2013-01-29 17:02:00,54.7,54.7,29.40,WSW,242,2.7,10.1,100,0.00,,,0.63,WUHU215WMR968SP,2013-01-29 22:02:00,
2013-01-29 17:07:00,54.7,54.7,29.40,SSE,160,4.9,8.7,100,0.00,,,0.63,WUHU215WMR968SP,2013-01-29 22:07:00,
2013-01-29 17:12:00,54.7,54.7,29.40,SSE,158,3.1,7.6,100,0.00,,,0.63,WUHU215WMR968SP,2013-01-29 22:12:00,
2013-01-29 17:17:00,54.7,54.7,29.40,South,175,5.8,8.7,100,0.00,,,0.63,WUHU215WMR968SP,2013-01-29 22:17:00,
2013-01-29 17:22:00,54.7,54.7,29.40,SSW,199,4.5,10.1,100,0.08,,,0.71,WUHU215WMR968SP,2013-01-29 22:22:00,
2013-01-29 17:27:00,54.9,54.9,29.40,South,184,4.9,10.1,100,0.16,,,0.79,WUHU215WMR968SP,2013-01-29 22:27:00,
2013-01-29 17:32:00,54.9,54.9,29.43,SW,219,4.0,6.3,100,0.16,,,0.79,WUHU215WMR968SP,2013-01-29 22:32:00,
2013-01-29 17:37:00,54.9,54.9,29.43,SSE,164,4.0,8.1,100,0.16,,,0.79,WUHU215WMR968SP,2013-01-29 22:37:00,
2013-01-29 17:42:00,54.9,54.9,29.43,SE,146,2.7,8.1,100,0.20,,,0.83,WUHU215WMR968SP,2013-01-29 22:42:00,
2013-01-29 17:47:00,54.9,54.9,29.40,SSE,162,4.5,8.1,100,0.20,,,0.83,WUHU215WMR968SP,2013-01-29 22:47:00,
2013-01-29 17:52:00,55.0,55.0,29.40,SSE,159,4.9,8.7,100,0.20,,,0.83,WUHU215WMR968SP,2013-01-29 22:52:00,
2013-01-29 17:57:00,55.0,55.0,29.40,SE,142,8.7,11.9,100,0.20,,,0.83,WUHU215WMR968SP,2013-01-29 22:57:00,
2013-01-29 18:02:00,55.2,55.2,29.40,South,185,4.9,11.9,100,0.20,,,0.83,WUHU215WMR968SP,2013-01-29 23:02:00,
2013-01-29 18:07:00,55.2,55.2,29.40,South,175,5.4,10.1,100,0.20,,,0.83,WUHU215WMR968SP,2013-01-29 23:07:00,
2013-01-29 18:12:00,55.2,55.2,29.40,SSE,165,3.6,8.3,100,0.20,,,0.83,WUHU215WMR968SP,2013-01-29 23:12:00,
2013-01-29 18:17:00,55.0,55.0,29.40,SSW,208,3.1,6.7,100,0.20,,,0.83,WUHU215WMR968SP,2013-01-29 23:17:00,
2013-01-29 18:22:00,55.0,55.0,29.40,South,171,3.1,6.7,100,0.20,,,0.91,WUHU215WMR968SP,2013-01-29 23:22:00,
2013-01-29 18:27:00,55.0,55.0,29.40,SSE,156,4.9,6.3,100,0.12,,,0.91,WUHU215WMR968SP,2013-01-29 23:27:00,
2013-01-29 18:32:00,55.0,55.0,29.40,SE,136,3.6,6.3,100,0.12,,,0.91,WUHU215WMR968SP,2013-01-29 23:32:00,
2013-01-29 18:37:00,55.0,55.0,29.40,SE,136,5.4,8.1,100,0.12,,,0.91,WUHU215WMR968SP,2013-01-29 23:37:00,
2013-01-29 18:42:00,55.0,55.0,29.40,South,189,4.9,8.1,100,0.08,,,0.91,WUHU215WMR968SP,2013-01-29 23:42:00,
2013-01-29 18:47:00,55.0,55.0,29.40,South,169,4.5,8.3,100,0.08,,,0.91,WUHU215WMR968SP,2013-01-29 23:47:00,
2013-01-29 18:52:00,55.0,55.0,29.40,SSE,161,4.9,8.3,100,0.08,,,0.91,WUHU215WMR968SP,2013-01-29 23:52:00,
2013-01-29 18:57:00,55.0,55.0,29.40,SE,129,3.6,7.6,100,0.08,,,0.91,WUHU215WMR968SP,2013-01-29 23:57:00,
2013-01-29 19:02:00,55.0,55.0,29.37,SSE,163,4.0,7.6,100,0.08,,,0.91,WUHU215WMR968SP,2013-01-30 00:02:00,
2013-01-29 19:07:00,54.9,54.9,29.37,SSE,166,4.5,6.3,100,0.08,,,0.91,WUHU215WMR968SP,2013-01-30 00:07:00,
2013-01-29 19:12:00,54.9,54.9,29.37,SSW,209,4.5,8.7,100,0.08,,,0.91,WUHU215WMR968SP,2013-01-30 00:12:00,
2013-01-29 19:17:00,55.0,55.0,29.37,SSE,153,5.4,8.7,100,0.08,,,0.91,WUHU215WMR968SP,2013-01-30 00:17:00,
2013-01-29 19:22:00,55.4,55.4,29.37,SSE,160,7.2,11.0,100,0.00,,,0.91,WUHU215WMR968SP,2013-01-30 00:22:00,
2013-01-29 19:27:00,55.6,55.6,29.37,SW,218,5.8,11.0,100,0.00,,,0.91,WUHU215WMR968SP,2013-01-30 00:27:00,
2013-01-29 19:32:00,55.6,55.6,29.34,SW,214,4.9,11.0,100,0.00,,,0.91,WUHU215WMR968SP,2013-01-30 00:32:00,
2013-01-29 19:37:00,55.8,55.8,29.34,SSW,208,5.4,13.2,100,0.00,,,0.91,WUHU215WMR968SP,2013-01-30 00:37:00,
2013-01-29 19:42:00,56.1,56.1,29.34,SW,236,4.0,15.4,100,0.04,,,0.94,WUHU215WMR968SP,2013-01-30 00:42:00,
2013-01-29 19:47:00,56.1,56.1,29.34,SSE,159,5.8,15.4,100,0.04,,,0.94,WUHU215WMR968SP,2013-01-30 00:47:00,
2013-01-29 19:52:00,55.9,55.9,29.34,SSE,165,6.3,12.3,100,0.04,,,0.94,WUHU215WMR968SP,2013-01-30 00:52:00,
2013-01-29 19:57:00,56.1,56.1,29.34,South,190,7.6,12.8,100,0.04,,,0.94,WUHU215WMR968SP,2013-01-30 00:57:00,
2013-01-29 20:03:00,56.3,56.3,29.34,SSW,203,5.4,12.8,100,0.04,,,0.94,WUHU215WMR968SP,2013-01-30 01:03:00,
2013-01-29 20:08:00,56.1,56.1,29.34,ESE,123,7.2,15.0,100,0.04,,,0.94,WUHU215WMR968SP,2013-01-30 01:08:00,
2013-01-29 20:13:00,56.3,56.3,29.34,SSW,213,9.2,15.0,100,0.04,,,0.94,WUHU215WMR968SP,2013-01-30 01:13:00,
2013-01-29 20:18:00,56.3,56.3,29.31,South,178,8.3,14.1,100,0.04,,,0.94,WUHU215WMR968SP,2013-01-30 01:18:00,
2013-01-29 20:23:00,56.5,56.5,29.31,South,179,8.1,14.1,100,0.04,,,0.94,WUHU215WMR968SP,2013-01-30 01:23:00,
2013-01-29 20:28:00,56.7,56.7,29.31,SE,136,6.3,13.2,100,0.04,,,0.94,WUHU215WMR968SP,2013-01-30 01:28:00,
2013-01-29 20:33:00,56.5,56.5,29.31,South,172,6.3,13.2,100,0.04,,,0.94,WUHU215WMR968SP,2013-01-30 01:33:00,
2013-01-29 20:38:00,56.5,56.5,29.31,SSE,161,5.4,10.5,100,0.04,,,0.94,WUHU215WMR968SP,2013-01-30 01:38:00,
2013-01-29 20:43:00,56.5,56.5,29.31,SSE,166,4.9,11.0,100,0.00,,,0.94,WUHU215WMR968SP,2013-01-30 01:43:00,
2013-01-29 20:48:00,56.3,56.3,29.28,South,176,7.2,11.0,100,0.00,,,0.94,WUHU215WMR968SP,2013-01-30 01:48:00,
2013-01-29 20:53:00,56.5,56.5,29.28,SSW,210,6.7,12.8,100,0.00,,,0.94,WUHU215WMR968SP,2013-01-30 01:53:00,
2013-01-29 20:58:00,56.5,56.5,29.28,SW,232,5.4,12.8,100,0.00,,,0.94,WUHU215WMR968SP,2013-01-30 01:58:00,
2013-01-29 21:03:00,56.5,56.5,29.28,SSW,198,6.3,10.1,100,0.00,,,0.94,WUHU215WMR968SP,2013-01-30 02:03:00,
2013-01-29 21:08:00,56.3,56.3,29.28,WSW,257,4.5,10.1,100,0.00,,,0.94,WUHU215WMR968SP,2013-01-30 02:08:00,
2013-01-29 21:13:00,56.3,56.3,29.28,SSW,207,5.4,10.5,100,0.00,,,0.94,WUHU215WMR968SP,2013-01-30 02:13:00,
2013-01-29 21:18:00,56.5,56.5,29.28,SSW,211,7.2,10.5,100,0.08,,,1.02,WUHU215WMR968SP,2013-01-30 02:18:00,
2013-01-29 21:23:00,56.5,56.5,29.28,SSE,157,6.3,12.8,100,0.08,,,1.02,WUHU215WMR968SP,2013-01-30 02:23:00,
2013-01-29 21:28:00,56.3,56.3,29.28,SSE,165,4.0,12.8,100,0.08,,,1.02,WUHU215WMR968SP,2013-01-30 02:28:00,
2013-01-29 21:33:00,56.3,56.3,29.28,South,181,3.1,10.1,100,0.12,,,1.06,WUHU215WMR968SP,2013-01-30 02:33:00,
2013-01-29 21:38:00,56.3,56.3,29.28,SSE,150,3.6,10.1,100,0.12,,,1.06,WUHU215WMR968SP,2013-01-30 02:38:00,
2013-01-29 21:43:00,56.3,56.3,29.28,South,175,2.2,8.7,100,0.12,,,1.06,WUHU215WMR968SP,2013-01-30 02:43:00,
2013-01-29 21:48:00,56.1,56.1,29.28,SSE,159,4.9,8.3,100,0.12,,,1.06,WUHU215WMR968SP,2013-01-30 02:48:00,
2013-01-29 21:53:00,56.3,56.3,29.28,SSW,204,5.8,10.1,100,0.12,,,1.06,WUHU215WMR968SP,2013-01-30 02:53:00,
2013-01-29 21:58:00,56.3,56.3,29.28,SSW,210,4.5,10.1,100,0.12,,,1.06,WUHU215WMR968SP,2013-01-30 02:58:00,
2013-01-29 22:03:00,56.1,56.1,29.28,South,175,0.0,8.3,100,0.12,,,1.06,WUHU215WMR968SP,2013-01-30 03:03:00,
2013-01-29 22:08:00,56.1,56.1,29.28,SSW,212,3.1,4.9,100,0.20,,,1.14,WUHU215WMR968SP,2013-01-30 03:08:00,
2013-01-29 22:13:00,55.9,55.9,29.28,South,186,4.5,6.7,100,0.20,,,1.14,WUHU215WMR968SP,2013-01-30 03:13:00,
2013-01-29 22:18:00,55.8,55.8,29.25,SSW,192,3.1,8.7,100,0.12,,,1.14,WUHU215WMR968SP,2013-01-30 03:18:00,
2013-01-29 22:23:00,55.8,55.8,29.25,SSE,167,4.5,8.7,100,0.12,,,1.14,WUHU215WMR968SP,2013-01-30 03:23:00,
2013-01-29 22:28:00,55.6,55.6,29.25,SE,141,4.9,7.6,100,0.12,,,1.14,WUHU215WMR968SP,2013-01-30 03:28:00,
2013-01-29 22:33:00,55.6,55.6,29.25,SW,222,4.5,8.3,100,0.08,,,1.14,WUHU215WMR968SP,2013-01-30 03:33:00,
2013-01-29 22:38:00,55.0,55.0,29.25,SSW,192,4.5,9.6,100,0.08,,,1.14,WUHU215WMR968SP,2013-01-30 03:38:00,
2013-01-29 22:43:00,54.5,54.5,29.25,SSE,167,4.5,13.2,100,0.08,,,1.14,WUHU215WMR968SP,2013-01-30 03:43:00,
2013-01-29 22:48:00,53.8,53.8,29.25,SSE,160,6.3,13.2,100,0.08,,,1.14,WUHU215WMR968SP,2013-01-30 03:48:00,
2013-01-29 22:53:00,53.4,53.4,29.25,SSE,158,3.6,10.5,100,0.08,,,1.14,WUHU215WMR968SP,2013-01-30 03:53:00,
2013-01-29 22:58:00,52.9,52.9,29.25,SSW,199,4.0,7.6,100,0.08,,,1.14,WUHU215WMR968SP,2013-01-30 03:58:00,
2013-01-29 23:03:00,52.7,52.7,29.25,SSW,195,5.8,8.3,100,0.08,,,1.14,WUHU215WMR968SP,2013-01-30 04:03:00,
2013-01-29 23:08:00,52.5,52.5,29.25,SSW,208,3.1,8.3,100,0.00,,,1.14,WUHU215WMR968SP,2013-01-30 04:08:00,
2013-01-29 23:13:00,52.5,52.5,29.25,South,191,4.5,5.8,100,0.00,,,1.14,WUHU215WMR968SP,2013-01-30 04:13:00,
2013-01-29 23:18:00,52.5,52.5,29.22,West,274,4.0,8.1,100,0.00,,,1.14,WUHU215WMR968SP,2013-01-30 04:18:00,
2013-01-29 23:23:00,52.7,52.7,29.22,SSW,203,6.7,9.6,100,0.00,,,1.14,WUHU215WMR968SP,2013-01-30 04:23:00,
2013-01-29 23:28:00,52.5,52.5,29.22,SSW,192,3.6,9.6,100,0.00,,,1.14,WUHU215WMR968SP,2013-01-30 04:28:00,
2013-01-29 23:33:00,52.3,52.3,29.25,West,263,2.7,8.7,100,0.00,,,1.14,WUHU215WMR968SP,2013-01-30 04:33:00,
2013-01-29 23:38:00,52.0,52.0,29.25,SSE,150,2.2,4.0,100,0.00,,,1.14,WUHU215WMR968SP,2013-01-30 04:38:00,
2013-01-29 23:43:00,52.0,52.0,29.25,West,259,2.2,4.0,100,0.00,,,1.14,WUHU215WMR968SP,2013-01-30 04:43:00,
2013-01-29 23:48:00,51.8,51.8,29.25,WNW,297,0.0,4.0,100,0.00,,,1.14,WUHU215WMR968SP,2013-01-30 04:48:00,
2013-01-29 23:53:00,51.6,51.6,29.25,West,280,0.0,4.0,100,0.00,,,1.14,WUHU215WMR968SP,2013-01-30 04:53:00,
2013-01-29 23:58:00,51.6,51.6,29.25,West,278,0.0,4.0,100,0.00,,,1.14,WUHU215WMR968SP,2013-01-30 04:58:00,